Wilmington, NC (28409)

5:14 AM EST on December 06, 2016 (GMT -0500)
Beyond the Branch | | Change Station

Elev 3 ft 34.16 °N, 77.87 °W | Updated 17 seconds ago

Light Rain
Light Rain
52.0 °F
Feels Like 52.0 °F
N
0.4
Wind Variable Wind from South
Gusts 2.5 mph

Today
High -- | Low -- °F
--% Chance of Precip.
Yesterday
High -- | Low -- °F
Precip. -- in
Pressure 29.92 in
Visibility 9.0 miles
Clouds Mostly Cloudy 600 ft
Mostly Cloudy 6500 ft
Overcast 11000 ft
Dew Point 51 °F
Humidity 98%
Rainfall 0.52 in
Snow Depth Not available.
7:03 AM 5:01 PM
Waxing Crescent, 40% visible
METAR KILM 060953Z AUTO 08010KT 9SM -RA BKN006 BKN065 OVC110 09/09 A2992 RMK AO2 SLP132 P0004 T00890089
Pressure 29.92 in
Visibility 9.0 miles
Clouds Mostly Cloudy 600 ft
Mostly Cloudy 6500 ft
Overcast 11000 ft
Dew Point 51 °F
Humidity 98%
Rainfall 0.52 in
Snow Depth Not available.
7:03 AM 5:01 PM
Waxing Crescent, 40% visible
METAR KILM 060953Z AUTO 08010KT 9SM -RA BKN006 BKN065 OVC110 09/09 A2992 RMK AO2 SLP132 P0004 T00890089

10-Day Weather Forecast

Almanac

Astronomy

Dec. 06, 2016 Rise Set
Actual Time
Civil Twilight
Nautical Twilight
Astronomical Twilight
Moon
Length of Visible Light
Length of Day
Tomorrow will be .
, % of the Moon is Illuminated

Today's Extremes

State Highs State Lows

Community

WunderPhotos

Upload Photos

1,955,935 photos uploaded!

WunderBlog® & News

Nearby

Air Quality

  Air Quality AQ Index Pollutant
Not available.

Snow Depth

Station Depth Elevation

Earthquake Activity

City Distance Mag. Time & Date
Minimum magnitude displayed is 2.5.

Coastal Water Temperatures

Place Temperature

Stations

Nearby Weather Stations

Station Location Temp. Windchill Dew Point Humidity Wind Precip. Elev Updated Type
                   

Watches & Warnings

There are currently no watches in effect.